Time;durP1;ratioP1;P1;durP2;ratioP2;P2;SDS_P1;SDS_P2;PMS_P1;PMS_P2;Temp;Humidity;BMP_temperature;BMP_pressure;BME280_temperature;BME280_humidity;BME280_pressure;Samples;Min_cycle;Max_cycle;Signal;HPM_P1;HPM_P2
2023/04/18 00:00:25;;;;;;;33.88;24.30;;;10.50;98.90;;;;;;5060584;28;20125;-65
2023/04/18 00:02:52;;;;;;;36.55;25.45;;;10.50;98.60;;;;;;5044102;28;20029;-65
2023/04/18 00:05:19;;;;;;;38.42;26.23;;;10.50;98.40;;;;;;5060568;28;20087;-65
2023/04/18 00:07:45;;;;;;;39.42;27.00;;;10.50;97.70;;;;;;5060589;28;20032;-65
2023/04/18 00:10:11;;;;;;;36.42;25.73;;;10.50;97.90;;;;;;5044119;28;20037;-66
2023/04/18 00:12:38;;;;;;;35.80;25.30;;;10.50;97.50;;;;;;5060405;28;20360;-66
2023/04/18 00:15:06;;;;;;;33.63;25.38;;;10.40;98.00;;;;;;5060548;28;20048;-65
2023/04/18 00:17:31;;;;;;;36.35;26.20;;;10.30;98.50;;;;;;5060336;28;20048;-66
2023/04/18 00:19:57;;;;;;;37.72;26.10;;;10.30;98.70;;;;;;5060896;28;20036;-65
2023/04/18 00:22:24;;;;;;;34.45;26.27;;;10.30;99.70;;;;;;5060422;28;20052;-65
2023/04/18 00:24:51;;;;;;;38.83;25.83;;;10.30;98.40;;;;;;5060236;28;20385;-66
2023/04/18 00:27:17;;;;;;;37.40;25.83;;;10.30;97.70;;;;;;5043785;28;20044;-65
2023/04/18 00:29:43;;;;;;;33.03;25.45;;;10.30;97.50;;;;;;5027150;28;20048;-65
2023/04/18 00:32:09;;;;;;;40.03;27.27;;;10.20;97.60;;;;;;5027092;28;20017;-65
2023/04/18 00:34:35;;;;;;;35.75;25.05;;;10.10;99.40;;;;;;5077461;28;20024;-65
2023/04/18 00:37:01;;;;;;;34.25;25.20;;;10.00;99.90;;;;;;5043409;28;20032;-65
2023/04/18 00:39:27;;;;;;;36.13;25.48;;;10.00;99.90;;;;;;5059971;28;20047;-65
2023/04/18 00:41:53;;;;;;;37.42;25.88;;;10.00;99.60;;;;;;5059969;28;20067;-65
2023/04/18 00:44:19;;;;;;;37.80;26.10;;;10.00;99.60;;;;;;5043464;28;20112;-65
2023/04/18 00:46:45;;;;;;;36.72;25.85;;;10.00;99.60;;;;;;5026955;28;20040;-65
2023/04/18 00:49:11;;;;;;;34.65;25.90;;;10.00;99.40;;;;;;5059927;28;20465;-66
2023/04/18 00:51:38;;;;;;;35.17;25.88;;;10.00;99.90;;;;;;5059366;28;20287;-66
2023/04/18 00:54:06;;;;;;;35.13;26.45;;;10.00;99.90;;;;;;5059739;28;20197;-66
2023/04/18 00:56:34;;;;;;;36.65;24.98;;;10.00;99.40;;;;;;5043112;28;20279;-66
2023/04/18 00:59:00;;;;;;;34.67;24.95;;;10.00;98.90;;;;;;5059718;28;20028;-66
2023/04/18 01:01:26;;;;;;;34.13;24.95;;;10.00;97.80;;;;;;5059735;28;20033;-65
2023/04/18 01:03:52;;;;;;;36.00;25.80;;;10.00;98.10;;;;;;5059474;28;20043;-65
2023/04/18 01:06:18;;;;;;;34.35;24.23;;;9.90;98.50;;;;;;5042915;28;20362;-66
2023/04/18 01:08:44;;;;;;;33.45;24.67;;;9.80;99.40;;;;;;5076968;28;20032;-65
2023/04/18 01:11:10;;;;;;;34.22;24.48;;;9.80;99.40;;;;;;5043137;28;20039;-66
2023/04/18 01:13:36;;;;;;;32.75;24.42;;;9.80;99.60;;;;;;5043000;28;20103;-66
2023/04/18 01:16:02;;;;;;;35.78;24.20;;;9.70;98.60;;;;;;5042735;28;20052;-66
2023/04/18 01:18:30;;;;;;;33.70;24.25;;;9.70;99.20;;;;;;5059457;28;20043;-66
2023/04/18 01:20:58;;;;;;;32.67;24.50;;;9.60;99.90;;;;;;5042747;28;20029;-66
2023/04/18 01:23:25;;;;;;;35.20;25.08;;;9.80;98.20;;;;;;5059321;28;20082;-66
2023/04/18 01:25:51;;;;;;;34.67;24.25;;;9.70;98.10;;;;;;5059495;28;20021;-66
2023/04/18 01:28:18;;;;;;;37.63;24.98;;;9.60;99.00;;;;;;5076785;28;20334;-66
2023/04/18 01:30:44;;;;;;;37.55;24.65;;;9.60;99.10;;;;;;5076793;28;20029;-66
2023/04/18 01:33:10;;;;;;;35.70;25.15;;;9.60;98.80;;;;;;5059489;28;20033;-66
2023/04/18 01:35:36;;;;;;;36.72;24.20;;;9.60;99.30;;;;;;5059368;28;20123;-66
2023/04/18 01:38:02;;;;;;;36.25;25.30;;;9.60;99.10;;;;;;5059383;28;20407;-66
2023/04/18 01:40:29;;;;;;;33.45;23.27;;;9.60;98.20;;;;;;5059896;28;20040;-66
2023/04/18 01:42:54;;;;;;;34.17;24.98;;;9.50;98.10;;;;;;5042843;28;20036;-66
2023/04/18 01:45:21;;;;;;;35.78;24.77;;;9.50;99.50;;;;;;5042609;28;20029;-66
2023/04/18 01:47:47;;;;;;;32.50;23.58;;;9.40;99.10;;;;;;5059657;28;20060;-66
2023/04/18 01:50:13;;;;;;;33.47;22.92;;;9.40;99.30;;;;;;5059302;28;20070;-66
2023/04/18 01:52:39;;;;;;;30.75;23.17;;;9.40;98.60;;;;;;5026361;28;20094;-66
2023/04/18 01:55:05;;;;;;;38.20;25.23;;;9.40;98.50;;;;;;5077101;28;20032;-65
2023/04/18 01:57:35;;;;;;;35.15;24.13;;;9.50;97.50;;;;;;5059044;28;20037;-66
2023/04/18 02:00:03;;;;;;;33.22;23.70;;;9.40;97.80;;;;;;5058998;28;20052;-65
2023/04/18 02:02:40;;;;;;;33.45;22.38;;;9.40;97.90;;;;;;5077801;28;20112;-66
2023/04/18 02:05:06;;;;;;;32.90;22.85;;;9.30;99.00;;;;;;5046369;28;20063;-65
2023/04/18 02:07:32;;;;;;;29.73;20.88;;;9.20;98.70;;;;;;5046141;28;20047;-66
2023/04/18 02:09:58;;;;;;;32.72;22.33;;;9.20;98.40;;;;;;5046124;28;20052;-66
2023/04/18 02:12:24;;;;;;;30.65;22.35;;;9.20;98.40;;;;;;5080376;28;20056;-66
2023/04/18 02:14:53;;;;;;;31.83;22.33;;;9.20;99.20;;;;;;5045898;28;20071;-66
2023/04/18 02:17:22;;;;;;;32.40;22.10;;;9.10;98.40;;;;;;5046114;28;20025;-65
2023/04/18 02:19:50;;;;;;;34.47;22.27;;;9.00;99.90;;;;;;5062491;28;20064;-65
2023/04/18 02:22:16;;;;;;;28.80;21.92;;;9.00;99.70;;;;;;5046380;28;20025;-65
2023/04/18 02:24:41;;;;;;;35.97;23.67;;;8.90;99.90;;;;;;5079915;28;20024;-65
2023/04/18 02:27:08;;;;;;;32.00;23.08;;;9.00;99.60;;;;;;5062383;28;20040;-66
2023/04/18 02:29:34;;;;;;;30.75;21.77;;;9.00;98.40;;;;;;5045846;28;20322;-66
2023/04/18 02:31:59;;;;;;;32.60;22.02;;;9.10;97.80;;;;;;5045665;28;20032;-67
2023/04/18 02:34:25;;;;;;;32.45;22.15;;;8.90;97.30;;;;;;5062496;28;20033;-65
2023/04/18 02:36:51;;;;;;;29.27;20.58;;;8.80;98.50;;;;;;5079998;28;20043;-65
2023/04/18 02:39:17;;;;;;;29.88;20.85;;;8.80;98.50;;;;;;5062451;28;20028;-65
2023/04/18 02:41:42;;;;;;;32.17;21.95;;;8.80;98.20;;;;;;5079714;28;20032;-65
2023/04/18 02:44:08;;;;;;;28.13;20.50;;;8.80;98.20;;;;;;5062181;28;20028;-65
2023/04/18 02:46:37;;;;;;;31.83;20.55;;;8.80;97.70;;;;;;5046092;28;20032;-65
2023/04/18 02:49:06;;;;;;;27.70;19.98;;;8.70;97.80;;;;;;5029783;28;20028;-65
2023/04/18 02:51:32;;;;;;;26.65;19.95;;;8.70;96.70;;;;;;5045526;28;20029;-65
2023/04/18 02:53:59;;;;;;;30.52;19.83;;;8.60;96.80;;;;;;5045629;28;20123;-65
2023/04/18 02:56:32;;;;;;;26.50;19.08;;;8.60;95.20;;;;;;5046572;28;20024;-65
2023/04/18 02:59:17;;;;;;;25.52;19.17;;;8.70;94.50;;;;;;5079795;28;20043;-65
2023/04/18 03:02:03;;;;;;;24.83;18.05;;;8.70;93.30;;;;;;4997754;28;20054;-65
2023/04/18 03:04:29;;;;;;;25.55;18.17;;;8.60;93.00;;;;;;5062078;28;20397;-65
2023/04/18 03:06:58;;;;;;;25.00;18.35;;;8.60;93.40;;;;;;5029623;28;20330;-65
2023/04/18 03:09:25;;;;;;;25.42;18.45;;;8.60;93.00;;;;;;5045437;28;20043;-65
2023/04/18 03:11:56;;;;;;;26.70;18.25;;;8.60;92.30;;;;;;5045908;28;20055;-65
2023/04/18 03:14:25;;;;;;;27.58;18.38;;;8.60;92.60;;;;;;5061279;28;20112;-65
2023/04/18 03:16:54;;;;;;;25.83;18.58;;;8.60;92.70;;;;;;5061324;28;20477;-65
2023/04/18 03:19:23;;;;;;;25.10;18.63;;;8.60;93.40;;;;;;5061499;28;20042;-66
2023/04/18 03:21:50;;;;;;;27.23;19.30;;;8.50;93.70;;;;;;5045036;28;20033;-65
2023/04/18 03:24:16;;;;;;;24.13;18.17;;;8.50;93.30;;;;;;5061548;28;20270;-65
2023/04/18 03:26:45;;;;;;;26.15;18.73;;;8.50;92.70;;;;;;5061532;28;20116;-65
2023/04/18 03:29:11;;;;;;;27.30;19.25;;;8.40;93.40;;;;;;5044695;28;20382;-65
2023/04/18 03:31:40;;;;;;;24.15;18.13;;;8.40;93.50;;;;;;5028584;28;20047;-65
2023/04/18 03:34:06;;;;;;;28.00;18.80;;;8.30;94.60;;;;;;5044780;28;20309;-65
2023/04/18 03:36:32;;;;;;;25.98;18.10;;;8.30;94.40;;;;;;5028098;28;20033;-65
2023/04/18 03:38:58;;;;;;;25.40;17.85;;;8.10;95.20;;;;;;5061056;28;20428;-65
2023/04/18 03:41:25;;;;;;;25.13;18.05;;;8.20;95.70;;;;;;5060982;28;20090;-65
2023/04/18 03:43:51;;;;;;;24.73;18.00;;;8.30;93.30;;;;;;5044421;28;20036;-65
2023/04/18 03:46:16;;;;;;;25.40;17.83;;;8.40;91.60;;;;;;5078711;28;20037;-66
2023/04/18 03:48:43;;;;;;;26.52;18.02;;;8.40;90.40;;;;;;5060909;28;20024;-65
2023/04/18 03:51:11;;;;;;;22.92;17.35;;;8.30;90.20;;;;;;5060847;28;20131;-65
2023/04/18 03:53:38;;;;;;;24.98;17.60;;;8.30;89.40;;;;;;5044346;28;20119;-65
2023/04/18 03:56:04;;;;;;;24.60;17.00;;;8.20;90.50;;;;;;5078196;28;20124;-65
2023/04/18 03:58:44;;;;;;;28.40;17.27;;;8.10;91.30;;;;;;5045997;28;20287;-65
2023/04/18 04:01:11;;;;;;;24.40;16.48;;;8.20;87.90;;;;;;5060578;28;20059;-64
2023/04/18 04:03:37;;;;;;;23.23;16.00;;;8.20;87.20;;;;;;5060866;28;20417;-64
2023/04/18 04:06:05;;;;;;;24.80;17.23;;;8.20;85.00;;;;;;5044363;28;20107;-64
2023/04/18 04:08:32;;;;;;;25.17;16.77;;;8.10;85.60;;;;;;5060527;28;20282;-64
2023/04/18 04:10:58;;;;;;;21.67;16.20;;;8.00;85.50;;;;;;5043927;28;20047;-64
2023/04/18 04:13:24;;;;;;;23.77;16.30;;;8.10;83.90;;;;;;5043895;28;20097;-64
2023/04/18 04:15:50;;;;;;;22.55;16.13;;;8.00;84.80;;;;;;5043733;28;20055;-64
2023/04/18 04:18:17;;;;;;;24.13;16.40;;;8.00;81.00;;;;;;5027392;28;20123;-64
2023/04/18 04:20:45;;;;;;;23.85;15.98;;;8.00;81.90;;;;;;5060282;28;20420;-64
2023/04/18 04:23:15;;;;;;;23.15;15.73;;;7.90;80.70;;;;;;5044343;28;20476;-64
2023/04/18 04:25:45;;;;;;;18.75;14.23;;;7.80;78.10;;;;;;5043344;28;20116;-64
2023/04/18 04:28:21;;;;;;;20.08;14.30;;;7.70;79.80;;;;;;5015216;28;20028;-64
2023/04/18 04:30:54;;;;;;;19.30;14.50;;;7.60;80.70;;;;;;5044312;28;20036;-64
2023/04/18 04:33:23;;;;;;;23.67;14.80;;;7.70;78.80;;;;;;5059967;28;20028;-64
2023/04/18 04:35:51;;;;;;;22.75;14.93;;;7.70;75.60;;;;;;5060018;28;20032;-63
2023/04/18 04:38:21;;;;;;;19.77;14.13;;;7.50;77.70;;;;;;5043360;28;20082;-64
2023/04/18 04:40:48;;;;;;;20.77;14.15;;;7.50;74.60;;;;;;5059984;28;20025;-63
2023/04/18 04:43:15;;;;;;;19.70;14.02;;;7.50;74.20;;;;;;5043371;28;20040;-63
2023/04/18 04:45:43;;;;;;;19.55;14.23;;;7.50;77.40;;;;;;5044147;28;20401;-64
2023/04/18 04:48:10;;;;;;;19.08;13.32;;;7.50;74.60;;;;;;5043247;28;20032;-64
2023/04/18 04:50:37;;;;;;;20.50;14.27;;;7.40;71.40;;;;;;5059699;28;20028;-64
2023/04/18 04:53:05;;;;;;;18.42;13.25;;;7.50;71.80;;;;;;5059782;28;20028;-64
2023/04/18 04:55:31;;;;;;;18.67;13.65;;;7.40;68.40;;;;;;5059712;28;20115;-64
2023/04/18 04:57:57;;;;;;;17.95;13.88;;;7.40;68.00;;;;;;5059553;28;20313;-64
2023/04/18 05:00:33;;;;;;;19.33;13.55;;;7.50;67.10;;;;;;5044075;28;20036;-64
2023/04/18 05:03:00;;;;;;;17.15;13.05;;;7.50;64.00;;;;;;5043027;28;20407;-64
2023/04/18 05:05:27;;;;;;;18.98;13.85;;;7.50;59.70;;;;;;5043608;28;20099;-64
2023/04/18 05:07:53;;;;;;;20.30;13.05;;;7.50;58.70;;;;;;5043035;28;20044;-64
2023/04/18 05:10:19;;;;;;;17.60;12.60;;;7.40;57.00;;;;;;5077436;28;20094;-64
2023/04/18 05:12:45;;;;;;;18.13;12.75;;;7.50;53.30;;;;;;5059436;28;20037;-64
2023/04/18 05:15:12;;;;;;;15.93;12.88;;;7.50;54.20;;;;;;5042563;28;20317;-64
2023/04/18 05:17:37;;;;;;;19.55;12.70;;;7.50;51.50;;;;;;5059658;28;20040;-64
2023/04/18 05:20:04;;;;;;;16.70;12.35;;;7.50;52.60;;;;;;5059471;28;20094;-64
2023/04/18 05:22:31;;;;;;;19.65;12.27;;;7.50;48.70;;;;;;5076788;28;20023;-64
2023/04/18 05:24:57;;;;;;;16.30;11.98;;;7.50;47.90;;;;;;5059433;28;20029;-64
2023/04/18 05:27:23;;;;;;;19.30;12.95;;;7.50;49.20;;;;;;5059358;28;20278;-65
2023/04/18 05:29:49;;;;;;;18.35;11.63;;;7.60;45.70;;;;;;5042881;28;20055;-64
2023/04/18 05:32:15;;;;;;;15.20;10.55;;;7.40;46.70;;;;;;5042716;28;20043;-64
2023/04/18 05:34:41;;;;;;;15.57;12.15;;;7.40;51.70;;;;;;5076708;28;20020;-63
2023/04/18 05:37:07;;;;;;;16.38;11.57;;;7.50;44.50;;;;;;5078822;28;20039;-64
2023/04/18 05:39:33;;;;;;;15.35;11.13;;;7.50;46.80;;;;;;5080755;28;20028;-65
2023/04/18 05:42:00;;;;;;;16.02;11.93;;;7.60;44.60;;;;;;5080589;28;20136;-64
2023/04/18 05:44:26;;;;;;;13.80;10.80;;;7.50;41.10;;;;;;5063917;28;20110;-62
2023/04/18 05:46:52;;;;;;;15.02;12.27;;;7.60;40.70;;;;;;5063261;28;20040;-63
2023/04/18 05:49:18;;;;;;;17.00;12.20;;;7.60;37.90;;;;;;5063544;28;20186;-63
2023/04/18 05:51:44;;;;;;;22.17;12.38;;;7.70;37.60;;;;;;5080849;28;20293;-67
2023/04/18 05:54:11;;;;;;;15.27;11.30;;;7.80;35.60;;;;;;5046442;28;20039;-64
2023/04/18 05:56:37;;;;;;;17.23;12.02;;;7.70;31.60;;;;;;5046531;28;20052;-65
2023/04/18 05:59:03;;;;;;;14.70;11.45;;;7.60;31.50;;;;;;5046329;28;20033;-65
2023/04/18 06:01:29;;;;;;;14.68;11.15;;;7.70;31.90;;;;;;5063282;28;20043;-65
2023/04/18 06:03:55;;;;;;;15.15;11.27;;;7.80;25.40;;;;;;5029853;28;20025;-65
2023/04/18 06:06:21;;;;;;;15.57;11.52;;;7.90;28.10;;;;;;5046372;28;20040;-66
2023/04/18 06:08:46;;;;;;;16.13;11.32;;;7.70;29.10;;;;;;5080161;28;20311;-64
2023/04/18 06:11:14;;;;;;;14.45;10.93;;;7.70;33.40;;;;;;5080168;28;20032;-65
2023/04/18 06:13:40;;;;;;;14.80;10.55;;;7.70;30.00;;;;;;5062785;28;20076;-64
2023/04/18 06:16:06;;;;;;;15.32;10.35;;;7.80;30.00;;;;;;5079840;28;20048;-65
2023/04/18 06:18:32;;;;;;;19.15;10.85;;;7.80;23.70;;;;;;5046081;28;20032;-66
2023/04/18 06:20:58;;;;;;;12.98;10.73;;;8.00;24.60;;;;;;5045859;28;20127;-67
2023/04/18 06:23:24;;;;;;;13.02;9.88;;;8.10;17.20;;;;;;5046179;28;20158;-64
2023/04/18 06:25:50;;;;;;;13.25;10.02;;;8.10;13.00;;;;;;5079933;28;20048;-65
2023/04/18 06:28:16;;;;;;;12.80;9.93;;;8.20;15.90;;;;;;5080114;28;20422;-66
2023/04/18 06:30:41;;;;;;;14.60;9.63;;;8.10;12.70;;;;;;5062517;28;20404;-66
2023/04/18 06:33:10;;;;;;;16.15;10.05;;;8.30;13.40;;;;;;5062331;28;20313;-66
2023/04/18 06:35:36;;;;;;;15.05;10.40;;;8.40;10.60;;;;;;5062323;28;20052;-65
2023/04/18 06:38:02;;;;;;;11.68;10.10;;;8.30;7.60;;;;;;5062320;28;20032;-65
2023/04/18 06:40:28;;;;;;;13.25;9.88;;;8.30;10.90;;;;;;5079865;28;20127;-65
2023/04/18 06:42:54;;;;;;;11.60;9.45;;;8.30;8.80;;;;;;5045801;28;20042;-65
2023/04/18 06:45:20;;;;;;;11.85;9.60;;;8.40;4.40;;;;;;5079603;28;20029;-65
2023/04/18 06:47:46;;;;;;;13.13;9.55;;;8.40;7.30;;;;;;5079026;28;20021;-65
2023/04/18 06:50:13;;;;;;;12.60;9.38;;;8.60;1.50;;;;;;5062070;28;20056;-66
2023/04/18 06:52:43;;;;;;;12.98;9.43;;;8.60;1.00;;;;;;5079435;28;20089;-65
2023/04/18 06:55:10;;;;;;;10.70;9.43;;;8.60;1.00;;;;;;5063149;28;20051;-66
2023/04/18 06:57:37;;;;;;;12.35;9.05;;;8.80;1.00;;;;;;5061867;28;20039;-65
2023/04/18 07:00:04;;;;;;;13.20;9.63;;;8.90;1.00;;;;;;5061970;28;20436;-65
2023/04/18 07:02:30;;;;;;;9.82;8.70;;;8.90;1.00;;;;;;5062007;28;20301;-64
2023/04/18 07:04:56;;;;;;;13.30;9.48;;;8.90;1.00;;;;;;5045263;28;20063;-65
2023/04/18 07:07:22;;;;;;;10.80;9.38;;;9.10;1.00;;;;;;5079228;28;20118;-64
2023/04/18 07:09:51;;;;;;;14.27;9.70;;;9.00;1.00;;;;;;5079179;28;20371;-66
2023/04/18 07:12:17;;;;;;;13.48;9.70;;;9.00;1.00;;;;;;5044964;28;20036;-65
2023/04/18 07:14:43;;;;;;;12.68;9.05;;;9.10;1.00;;;;;;5061427;28;20301;-65
2023/04/18 07:17:09;;;;;;;12.55;8.98;;;9.00;1.00;;;;;;5061504;28;20043;-64
2023/04/18 07:19:34;;;;;;;12.77;9.07;;;9.00;1.00;;;;;;5061712;28;20028;-65
2023/04/18 07:22:00;;;;;;;14.27;9.32;;;9.10;1.00;;;;;;5061824;28;20036;-65
2023/04/18 07:24:26;;;;;;;12.88;9.30;;;9.20;1.00;;;;;;5045161;28;20036;-64
2023/04/18 07:26:53;;;;;;;11.05;9.20;;;9.20;1.00;;;;;;5044896;28;20128;-61
2023/04/18 07:29:18;;;;;;;12.52;9.63;;;9.30;1.00;;;;;;5078779;28;20405;-64
2023/04/18 07:31:48;;;;;;;13.32;9.55;;;9.20;1.00;;;;;;5061342;28;20036;-64
2023/04/18 07:34:14;;;;;;;10.98;9.05;;;9.30;1.00;;;;;;5061148;28;20028;-64
2023/04/18 07:36:40;;;;;;;11.18;8.90;;;9.40;1.00;;;;;;5044504;28;20459;-64
2023/04/18 07:39:06;;;;;;;13.27;9.43;;;9.50;1.00;;;;;;5078569;28;20033;-65
2023/04/18 07:41:33;;;;;;;12.05;9.40;;;9.70;1.00;;;;;;5061467;28;20328;-64
2023/04/18 07:44:00;;;;;;;10.85;9.57;;;9.70;1.00;;;;;;5061250;28;20028;-64
2023/04/18 07:46:26;;;;;;;15.27;9.77;;;9.90;1.00;;;;;;5061054;28;20025;-66
2023/04/18 07:48:51;;;;;;;11.90;9.35;;;9.80;1.00;;;;;;5061090;28;20178;-66
2023/04/18 07:51:17;;;;;;;10.20;9.10;;;9.90;1.00;;;;;;5027950;28;20074;-62
2023/04/18 07:53:43;;;;;;;13.13;9.25;;;10.00;1.00;;;;;;5061092;28;20036;-63
2023/04/18 07:56:14;;;;;;;13.65;9.93;;;9.80;1.00;;;;;;5044104;28;20035;-64
2023/04/18 07:58:39;;;;;;;11.10;9.43;;;9.70;1.00;;;;;;5078112;28;20048;-64
2023/04/18 08:01:06;;;;;;;12.55;9.70;;;9.80;1.00;;;;;;5077420;28;20513;-65
2023/04/18 08:03:35;;;;;;;11.90;9.50;;;10.20;1.00;;;;;;5078112;28;20292;-65
2023/04/18 08:06:02;;;;;;;11.38;9.20;;;10.40;1.00;;;;;;5060852;28;20037;-65
2023/04/18 08:08:27;;;;;;;13.75;9.77;;;10.20;1.00;;;;;;5060500;28;20032;-67
2023/04/18 08:10:53;;;;;;;12.40;9.38;;;10.20;1.00;;;;;;5061116;28;20094;-64
2023/04/18 08:13:19;;;;;;;14.65;10.07;;;10.20;1.00;;;;;;5077849;28;20040;-66
2023/04/18 08:15:45;;;;;;;11.98;9.73;;;10.20;1.00;;;;;;5060697;28;20052;-65
2023/04/18 08:18:11;;;;;;;12.15;9.90;;;10.30;1.00;;;;;;5060290;28;20040;-63
2023/04/18 08:20:37;;;;;;;15.65;9.93;;;10.40;1.00;;;;;;5077712;28;20297;-65
2023/04/18 08:23:03;;;;;;;15.93;11.30;;;10.60;1.00;;;;;;5060420;28;20025;-64
2023/04/18 08:25:30;;;;;;;12.55;10.02;;;10.60;1.00;;;;;;5077693;28;20353;-64
2023/04/18 08:27:56;;;;;;;11.48;9.68;;;10.80;1.00;;;;;;5060164;28;20348;-64
2023/04/18 08:30:22;;;;;;;12.70;10.82;;;11.10;1.00;;;;;;5044334;28;20302;-65
2023/04/18 08:32:48;;;;;;;10.85;9.45;;;11.00;1.00;;;;;;5060305;28;20321;-64
2023/04/18 08:35:14;;;;;;;14.07;9.80;;;11.10;1.00;;;;;;5060258;28;20028;-64
2023/04/18 08:37:40;;;;;;;14.10;10.43;;;11.10;1.00;;;;;;5060146;28;20387;-66
2023/04/18 08:40:07;;;;;;;13.43;10.05;;;10.90;1.00;;;;;;5059928;28;20090;-66
2023/04/18 08:42:34;;;;;;;12.38;10.80;;;10.90;1.00;;;;;;5059698;28;20032;-65
2023/04/18 08:45:00;;;;;;;12.73;9.98;;;10.80;1.00;;;;;;5043405;28;20127;-65
2023/04/18 08:47:29;;;;;;;12.27;10.10;;;10.80;1.00;;;;;;5059686;28;20032;-65
2023/04/18 08:49:56;;;;;;;12.65;10.48;;;11.00;1.00;;;;;;5060001;28;20032;-65
2023/04/18 08:52:22;;;;;;;13.55;10.27;;;11.20;1.00;;;;;;5077153;28;20064;-65
2023/04/18 08:54:49;;;;;;;14.75;11.02;;;11.40;1.00;;;;;;5077110;28;20051;-65
2023/04/18 08:57:17;;;;;;;13.27;10.80;;;11.60;1.00;;;;;;5059615;28;20309;-64
2023/04/18 08:59:44;;;;;;;14.13;10.98;;;11.70;1.00;;;;;;5077115;28;20367;-66
2023/04/18 09:02:11;;;;;;;14.45;11.02;;;11.60;1.00;;;;;;5059541;28;20397;-64
2023/04/18 09:04:39;;;;;;;12.65;11.35;;;11.80;1.00;;;;;;5077034;28;20036;-65
2023/04/18 09:07:10;;;;;;;15.10;10.88;;;11.60;1.00;;;;;;5059601;28;20032;-65
2023/04/18 09:09:48;;;;;;;12.38;10.88;;;11.90;1.00;;;;;;5077551;28;20024;-66
2023/04/18 09:12:25;;;;;;;13.73;11.32;;;12.10;1.00;;;;;;5076583;28;20297;-67
2023/04/18 09:15:13;;;;;;;13.35;11.15;;;12.20;1.00;;;;;;5042845;28;20078;-65
2023/04/18 09:17:47;;;;;;;13.20;11.30;;;12.40;1.00;;;;;;5076829;28;20090;-67
2023/04/18 09:20:39;;;;;;;14.32;12.00;;;12.80;1.00;;;;;;5071236;28;20098;-66
2023/04/18 09:23:10;;;;;;;13.80;11.55;;;12.60;1.00;;;;;;5039635;28;20066;-64
2023/04/18 09:25:41;;;;;;;16.02;11.73;;;12.70;1.00;;;;;;5056677;28;20025;-64
2023/04/18 09:28:22;;;;;;;14.23;12.05;;;12.60;1.00;;;;;;5056696;28;20040;-64
2023/04/18 09:30:53;;;;;;;13.75;11.20;;;12.90;1.00;;;;;;5039228;28;20405;-65
2023/04/18 09:33:27;;;;;;;14.95;13.25;;;12.90;1.00;;;;;;5056694;28;20329;-65
2023/04/18 09:35:53;;;;;;;15.70;12.73;;;12.50;1.00;;;;;;5056594;28;20415;-65
2023/04/18 09:38:19;;;;;;;15.75;13.55;;;12.60;1.00;;;;;;5039134;28;20063;-65
2023/04/18 09:40:45;;;;;;;17.08;14.25;;;12.60;1.00;;;;;;5023406;28;20037;-64
2023/04/18 09:43:20;;;;;;;15.57;13.77;;;12.60;1.00;;;;;;5039068;28;20037;-65
2023/04/18 09:45:47;;;;;;;18.08;13.48;;;13.00;1.00;;;;;;5022895;28;20460;-64
2023/04/18 09:48:13;;;;;;;15.40;13.73;;;13.20;1.00;;;;;;5022840;28;20025;-64
2023/04/18 09:50:41;;;;;;;16.15;14.45;;;13.20;1.00;;;;;;5039052;28;20075;-64
2023/04/18 09:53:09;;;;;;;16.10;14.15;;;13.20;1.00;;;;;;5022918;28;20328;-64
2023/04/18 09:55:37;;;;;;;15.73;13.98;;;13.20;1.00;;;;;;5056557;28;20033;-67
2023/04/18 09:58:07;;;;;;;13.88;12.18;;;13.10;1.00;;;;;;5056422;28;20021;-63
2023/04/18 10:00:36;;;;;;;17.13;13.43;;;13.00;1.00;;;;;;5040287;28;20036;-64
2023/04/18 10:03:07;;;;;;;15.85;13.07;;;13.30;1.00;;;;;;5022611;28;20025;-68
2023/04/18 10:05:35;;;;;;;15.30;12.50;;;13.30;1.00;;;;;;5039700;28;20052;-64
2023/04/18 10:08:02;;;;;;;14.00;12.25;;;13.70;1.00;;;;;;5056309;28;20017;-65
2023/04/18 10:10:28;;;;;;;13.43;11.57;;;13.60;1.00;;;;;;5056256;28;20048;-65
2023/04/18 10:12:58;;;;;;;12.50;11.00;;;13.80;1.00;;;;;;5039026;28;20040;-65
2023/04/18 10:15:26;;;;;;;13.32;11.00;;;13.90;1.00;;;;;;5056059;28;20096;-67
2023/04/18 10:17:59;;;;;;;15.15;11.88;;;14.40;1.00;;;;;;5056034;28;20103;-65
2023/04/18 10:20:26;;;;;;;12.95;10.68;;;14.70;1.00;;;;;;5038777;28;20029;-65
2023/04/18 10:22:53;;;;;;;12.82;10.75;;;14.50;1.00;;;;;;5039199;28;20029;-63
2023/04/18 10:25:37;;;;;;;14.23;9.70;;;14.40;1.00;;;;;;5025918;28;20029;-67
2023/04/18 10:28:04;;;;;;;14.20;9.52;;;14.40;99.90;;;;;;5042477;28;20051;-66
2023/04/18 10:30:50;;;;;;;10.57;8.73;;;13.70;99.90;;;;;;5026355;28;20041;-65
2023/04/18 10:33:36;;;;;;;11.07;8.52;;;13.60;1.00;;;;;;5042378;28;20116;-63
2023/04/18 10:36:05;;;;;;;14.48;9.52;;;14.00;99.90;;;;;;5060392;28;20056;-66
2023/04/18 10:38:32;;;;;;;11.38;9.35;;;13.80;99.90;;;;;;5042205;28;20310;-68
2023/04/18 10:41:43;;;;;;;9.82;8.65;;;13.70;1.00;;;;;;5025857;28;20116;-63
2023/04/18 10:44:21;;;;;;;13.70;9.15;;;13.80;1.00;;;;;;5055113;28;20309;-64
2023/04/18 10:46:49;;;;;;;13.50;9.38;;;14.50;99.90;;;;;;5059996;28;20029;-65
2023/04/18 10:49:22;;;;;;;10.60;9.50;;;15.10;99.90;;;;;;5059445;28;20017;-64
2023/04/18 10:51:50;;;;;;;12.60;10.55;;;15.30;99.90;;;;;;5059591;28;20362;-65
2023/04/18 10:54:37;;;;;;;12.05;10.80;;;15.10;1.00;;;;;;5059440;28;20292;-66
2023/04/18 10:57:06;;;;;;;11.27;10.15;;;15.00;34.60;;;;;;5059668;28;20029;-66
2023/04/18 10:59:36;;;;;;;13.07;10.48;;;15.30;99.90;;;;;;5042227;28;20317;-64
2023/04/18 11:02:24;;;;;;;13.45;11.05;;;15.40;1.00;;;;;;5041676;28;20037;-63
2023/04/18 11:04:55;;;;;;;12.27;11.05;;;15.00;16.00;;;;;;5059035;28;20029;-64
2023/04/18 11:07:43;;;;;;;12.13;10.88;;;15.10;91.60;;;;;;5025231;28;20425;-63
2023/04/18 11:10:09;;;;;;;14.25;11.75;;;15.40;1.00;;;;;;5042241;28;20029;-65
2023/04/18 11:12:40;;;;;;;12.98;11.63;;;15.20;1.00;;;;;;5042101;28;20032;-66
2023/04/18 11:15:20;;;;;;;13.63;12.32;;;15.00;1.00;;;;;;5059129;28;20044;-65
2023/04/18 11:18:00;;;;;;;14.73;13.15;;;14.70;99.90;;;;;;5058873;28;20115;-67
2023/04/18 11:20:37;;;;;;;17.40;13.35;;;14.10;99.90;;;;;;5041459;28;20182;-65
2023/04/18 11:23:03;;;;;;;15.80;14.30;;;14.00;99.90;;;;;;5058785;28;20029;-66
2023/04/18 11:25:31;;;;;;;15.30;13.70;;;13.70;99.90;;;;;;5058789;28;20278;-65
2023/04/18 11:28:02;;;;;;;15.77;14.27;;;14.10;1.00;;;;;;5058637;28;20021;-64
2023/04/18 11:30:35;;;;;;;15.10;13.63;;;14.20;99.90;;;;;;5041216;28;20033;-66
2023/04/18 11:33:07;;;;;;;14.85;13.15;;;15.20;99.90;;;;;;5058793;28;20093;-64
2023/04/18 11:35:39;;;;;;;14.98;13.57;;;15.80;1.00;;;;;;5040926;28;20025;-66
2023/04/18 11:38:06;;;;;;;;;;;15.70;1.00;;;;;;5041826;28;20036;-63
2023/04/18 11:40:32;;;;;;;12.20;11.10;;;15.90;1.00;;;;;;5041099;28;19917;-65
2023/04/18 11:43:02;;;;;;;12.07;10.98;;;16.30;43.10;;;;;;5024708;28;20043;-67
2023/04/18 11:45:28;;;;;;;14.32;10.20;;;16.20;1.00;;;;;;5058431;28;20513;-61
2023/04/18 11:47:58;;;;;;;11.90;10.30;;;16.20;99.90;;;;;;5058322;28;20127;-64
2023/04/18 11:50:25;;;;;;;12.75;10.57;;;15.60;1.00;;;;;;5040869;28;20420;-63
2023/04/18 11:52:53;;;;;;;14.25;9.25;;;15.10;99.90;;;;;;5040906;28;20043;-64
2023/04/18 11:55:24;;;;;;;9.50;8.52;;;15.10;99.90;;;;;;5040903;28;20064;-64
2023/04/18 11:57:54;;;;;;;9.85;8.88;;;14.60;99.90;;;;;;5040670;28;20029;-62
2023/04/18 12:00:29;;;;;;;8.90;8.05;;;14.70;1.00;;;;;;5058119;28;20029;-62
2023/04/18 12:02:57;;;;;;;8.75;7.95;;;15.20;34.40;;;;;;5040569;28;20029;-63
2023/04/18 12:05:33;;;;;;;10.25;8.32;;;15.20;1.00;;;;;;5024196;28;20033;-62
2023/04/18 12:08:19;;;;;;;9.43;8.43;;;15.30;35.60;;;;;;5040667;28;20060;-65
2023/04/18 12:10:49;;;;;;;8.98;7.60;;;15.80;1.00;;;;;;5057424;28;20488;-63
2023/04/18 12:13:15;;;;;;;8.80;7.90;;;15.60;1.00;;;;;;5040619;28;20059;-62
2023/04/18 12:15:45;;;;;;;8.52;7.72;;;15.80;1.00;;;;;;5057668;28;20084;-62
2023/04/18 12:18:12;;;;;;;11.07;7.68;;;16.00;1.00;;;;;;5040925;28;20094;-61
2023/04/18 12:20:45;;;;;;;7.03;6.43;;;15.60;1.00;;;;;;5040277;28;20053;-65
2023/04/18 12:23:33;;;;;;;8.93;6.35;;;16.30;74.80;;;;;;5040431;28;20104;-65
2023/04/18 12:26:06;;;;;;;8.25;7.00;;;17.40;1.00;;;;;;5057607;28;20033;-64
2023/04/18 12:28:33;;;;;;;7.00;6.40;;;16.70;1.00;;;;;;5040290;28;20021;-64
2023/04/18 12:31:00;;;;;;;7.80;7.10;;;15.90;99.90;;;;;;5057470;28;20061;-63
2023/04/18 12:33:26;;;;;;;7.93;7.28;;;16.10;1.00;;;;;;5057452;28;20067;-63
2023/04/18 12:35:52;;;;;;;8.13;7.32;;;15.70;99.90;;;;;;5040265;28;20060;-64
2023/04/18 12:38:22;;;;;;;8.45;7.65;;;15.30;1.00;;;;;;5039960;28;20065;-63
2023/04/18 12:40:48;;;;;;;9.15;8.25;;;15.70;1.00;;;;;;5040030;28;20029;-62
2023/04/18 12:43:15;;;;;;;8.77;7.80;;;16.00;99.90;;;;;;5057278;28;20024;-63
2023/04/18 12:45:41;;;;;;;11.38;7.78;;;16.80;99.90;;;;;;5056743;28;20293;-63